sensor_id;sensor_type;location;lat;lon;timestamp;temperature;humidity
5218;DHT22;26539;51.064;6.346;2022-09-06T00:02:24;24.00;28.80
5218;DHT22;26539;51.064;6.346;2022-09-06T00:04:50;23.80;31.50
5218;DHT22;26539;51.064;6.346;2022-09-06T00:07:15;23.70;37.10
5218;DHT22;26539;51.064;6.346;2022-09-06T00:09:41;23.60;42.10
5218;DHT22;26539;51.064;6.346;2022-09-06T00:12:07;23.50;47.50
5218;DHT22;26539;51.064;6.346;2022-09-06T00:14:32;23.40;52.40
5218;DHT22;26539;51.064;6.346;2022-09-06T00:16:58;23.20;57.40
5218;DHT22;26539;51.064;6.346;2022-09-06T00:19:26;23.10;64.70
5218;DHT22;26539;51.064;6.346;2022-09-06T00:21:54;23.10;72.50
5218;DHT22;26539;51.064;6.346;2022-09-06T00:24:20;23.00;79.10
5218;DHT22;26539;51.064;6.346;2022-09-06T00:26:45;23.00;87.10
5218;DHT22;26539;51.064;6.346;2022-09-06T00:29:11;22.90;92.20
5218;DHT22;26539;51.064;6.346;2022-09-06T00:31:36;22.90;94.30
5218;DHT22;26539;51.064;6.346;2022-09-06T00:34:02;22.90;96.70
5218;DHT22;26539;51.064;6.346;2022-09-06T00:36:28;22.90;99.90
5218;DHT22;26539;51.064;6.346;2022-09-06T00:38:53;22.80;99.90
5218;DHT22;26539;51.064;6.346;2022-09-06T00:41:19;22.90;99.90
5218;DHT22;26539;51.064;6.346;2022-09-06T00:43:44;22.80;99.90
5218;DHT22;26539;51.064;6.346;2022-09-06T00:46:17;22.70;99.90
5218;DHT22;26539;51.064;6.346;2022-09-06T00:48:46;22.70;99.90
5218;DHT22;26539;51.064;6.346;2022-09-06T00:51:14;22.60;99.90
5218;DHT22;26539;51.064;6.346;2022-09-06T00:53:41;22.60;99.90
5218;DHT22;26539;51.064;6.346;2022-09-06T00:56:06;22.50;99.90
5218;DHT22;26539;51.064;6.346;2022-09-06T00:58:33;22.50;99.90
5218;DHT22;26539;51.064;6.346;2022-09-06T01:00:59;22.40;99.90
5218;DHT22;26539;51.064;6.346;2022-09-06T01:03:25;22.30;99.90
5218;DHT22;26539;51.064;6.346;2022-09-06T01:16:43;21.90;1.00
5218;DHT22;26539;51.064;6.346;2022-09-06T01:25:03;21.80;1.00
5218;DHT22;26539;51.064;6.346;2022-09-06T01:30:11;21.80;99.20
5218;DHT22;26539;51.064;6.346;2022-09-06T01:37:54;21.70;99.90
5218;DHT22;26539;51.064;6.346;2022-09-06T01:40:19;21.70;99.90
5218;DHT22;26539;51.064;6.346;2022-09-06T01:42:46;21.70;99.90
5218;DHT22;26539;51.064;6.346;2022-09-06T01:45:22;21.70;99.90
5218;DHT22;26539;51.064;6.346;2022-09-06T01:51:25;21.60;99.90
5218;DHT22;26539;51.064;6.346;2022-09-06T01:53:49;21.60;99.90
5218;DHT22;26539;51.064;6.346;2022-09-06T01:56:37;21.60;99.90
5218;DHT22;26539;51.064;6.346;2022-09-06T01:59:26;21.60;99.90
5218;DHT22;26539;51.064;6.346;2022-09-06T02:04:50;21.50;1.00
5218;DHT22;26539;51.064;6.346;2022-09-06T02:07:27;21.30;1.00
5218;DHT22;26539;51.064;6.346;2022-09-06T02:10:30;21.30;46.70
5218;DHT22;26539;51.064;6.346;2022-09-06T02:12:59;21.30;99.90
5218;DHT22;26539;51.064;6.346;2022-09-06T02:15:32;21.30;99.90
5218;DHT22;26539;51.064;6.346;2022-09-06T02:18:05;21.30;1.00
5218;DHT22;26539;51.064;6.346;2022-09-06T02:20:35;21.30;1.00
5218;DHT22;26539;51.064;6.346;2022-09-06T02:23:04;21.20;1.00
5218;DHT22;26539;51.064;6.346;2022-09-06T02:25:38;21.10;24.40
5218;DHT22;26539;51.064;6.346;2022-09-06T02:28:05;21.00;99.90
5218;DHT22;26539;51.064;6.346;2022-09-06T02:30:34;21.00;99.90
5218;DHT22;26539;51.064;6.346;2022-09-06T02:33:07;21.00;99.90
5218;DHT22;26539;51.064;6.346;2022-09-06T02:35:45;21.00;99.90
5218;DHT22;26539;51.064;6.346;2022-09-06T02:38:11;21.00;99.90
5218;DHT22;26539;51.064;6.346;2022-09-06T02:40:37;21.00;99.90
5218;DHT22;26539;51.064;6.346;2022-09-06T02:43:03;21.00;1.00
5218;DHT22;26539;51.064;6.346;2022-09-06T02:45:29;21.00;99.90
5218;DHT22;26539;51.064;6.346;2022-09-06T02:47:54;21.10;99.90
5218;DHT22;26539;51.064;6.346;2022-09-06T02:50:20;21.20;99.90
5218;DHT22;26539;51.064;6.346;2022-09-06T02:52:46;21.10;99.90
5218;DHT22;26539;51.064;6.346;2022-09-06T02:55:11;21.10;99.90
5218;DHT22;26539;51.064;6.346;2022-09-06T02:57:37;21.00;99.90
5218;DHT22;26539;51.064;6.346;2022-09-06T03:00:03;21.00;99.90
5218;DHT22;26539;51.064;6.346;2022-09-06T03:02:32;21.10;99.90
5218;DHT22;26539;51.064;6.346;2022-09-06T03:04:58;21.00;1.00
5218;DHT22;26539;51.064;6.346;2022-09-06T03:07:23;20.80;1.00
5218;DHT22;26539;51.064;6.346;2022-09-06T03:09:49;20.80;1.00
5218;DHT22;26539;51.064;6.346;2022-09-06T03:12:15;20.80;99.90
5218;DHT22;26539;51.064;6.346;2022-09-06T03:14:41;20.60;99.90
5218;DHT22;26539;51.064;6.346;2022-09-06T03:17:06;20.50;1.00
5218;DHT22;26539;51.064;6.346;2022-09-06T03:19:32;20.50;1.00
5218;DHT22;26539;51.064;6.346;2022-09-06T03:21:58;20.50;1.00
5218;DHT22;26539;51.064;6.346;2022-09-06T03:24:23;20.50;1.00
5218;DHT22;26539;51.064;6.346;2022-09-06T03:26:49;20.50;1.00
5218;DHT22;26539;51.064;6.346;2022-09-06T03:29:15;20.40;96.00
5218;DHT22;26539;51.064;6.346;2022-09-06T03:31:40;20.40;99.90
5218;DHT22;26539;51.064;6.346;2022-09-06T03:34:06;20.30;99.90
5218;DHT22;26539;51.064;6.346;2022-09-06T03:36:31;20.20;1.00
5218;DHT22;26539;51.064;6.346;2022-09-06T03:38:57;20.20;99.90
5218;DHT22;26539;51.064;6.346;2022-09-06T03:41:23;20.30;99.90
5218;DHT22;26539;51.064;6.346;2022-09-06T03:43:48;20.20;1.00
5218;DHT22;26539;51.064;6.346;2022-09-06T03:46:14;20.10;99.90
5218;DHT22;26539;51.064;6.346;2022-09-06T03:48:40;20.00;99.90
5218;DHT22;26539;51.064;6.346;2022-09-06T03:51:05;19.90;1.00
5218;DHT22;26539;51.064;6.346;2022-09-06T03:53:31;19.90;1.00
5218;DHT22;26539;51.064;6.346;2022-09-06T03:55:57;19.80;1.00
5218;DHT22;26539;51.064;6.346;2022-09-06T03:58:23;19.80;1.00
5218;DHT22;26539;51.064;6.346;2022-09-06T04:00:59;19.80;1.00
5218;DHT22;26539;51.064;6.346;2022-09-06T04:03:24;19.70;1.00
5218;DHT22;26539;51.064;6.346;2022-09-06T04:05:50;19.70;1.00
5218;DHT22;26539;51.064;6.346;2022-09-06T04:08:15;19.60;1.00
5218;DHT22;26539;51.064;6.346;2022-09-06T04:10:41;19.60;1.00
5218;DHT22;26539;51.064;6.346;2022-09-06T04:13:06;19.60;1.00
5218;DHT22;26539;51.064;6.346;2022-09-06T04:15:35;19.60;1.00
5218;DHT22;26539;51.064;6.346;2022-09-06T04:18:01;19.50;1.00
5218;DHT22;26539;51.064;6.346;2022-09-06T04:20:27;19.40;99.90
5218;DHT22;26539;51.064;6.346;2022-09-06T04:22:52;19.40;99.90
5218;DHT22;26539;51.064;6.346;2022-09-06T04:25:18;19.30;99.90
5218;DHT22;26539;51.064;6.346;2022-09-06T04:27:43;19.30;99.90
5218;DHT22;26539;51.064;6.346;2022-09-06T04:30:09;19.30;99.90
5218;DHT22;26539;51.064;6.346;2022-09-06T04:32:35;19.30;99.90
5218;DHT22;26539;51.064;6.346;2022-09-06T04:35:00;19.30;99.90
5218;DHT22;26539;51.064;6.346;2022-09-06T04:37:28;19.30;99.90
5218;DHT22;26539;51.064;6.346;2022-09-06T04:39:54;19.30;99.90
5218;DHT22;26539;51.064;6.346;2022-09-06T04:42:19;19.20;1.00
5218;DHT22;26539;51.064;6.346;2022-09-06T04:44:45;19.20;1.00
5218;DHT22;26539;51.064;6.346;2022-09-06T04:47:14;19.20;1.00
5218;DHT22;26539;51.064;6.346;2022-09-06T04:49:42;19.20;1.00
5218;DHT22;26539;51.064;6.346;2022-09-06T04:52:08;19.20;1.00
5218;DHT22;26539;51.064;6.346;2022-09-06T04:54:34;19.20;99.90
5218;DHT22;26539;51.064;6.346;2022-09-06T04:57:00;19.20;99.90
5218;DHT22;26539;51.064;6.346;2022-09-06T04:59:25;19.20;99.90
5218;DHT22;26539;51.064;6.346;2022-09-06T05:01:51;19.10;1.00
5218;DHT22;26539;51.064;6.346;2022-09-06T05:04:16;19.10;1.00
5218;DHT22;26539;51.064;6.346;2022-09-06T05:06:42;19.00;1.00
5218;DHT22;26539;51.064;6.346;2022-09-06T05:09:08;19.00;99.90
5218;DHT22;26539;51.064;6.346;2022-09-06T05:11:34;18.90;99.90
5218;DHT22;26539;51.064;6.346;2022-09-06T05:14:00;19.00;99.90
5218;DHT22;26539;51.064;6.346;2022-09-06T05:16:25;19.00;99.90
5218;DHT22;26539;51.064;6.346;2022-09-06T05:18:51;19.10;36.20
5218;DHT22;26539;51.064;6.346;2022-09-06T05:21:16;19.10;1.00
5218;DHT22;26539;51.064;6.346;2022-09-06T05:23:42;19.20;2.90
5218;DHT22;26539;51.064;6.346;2022-09-06T05:26:11;19.10;47.00
5218;DHT22;26539;51.064;6.346;2022-09-06T05:28:36;19.10;1.00
5218;DHT22;26539;51.064;6.346;2022-09-06T05:31:10;19.20;1.00
5218;DHT22;26539;51.064;6.346;2022-09-06T05:33:36;19.20;1.00
5218;DHT22;26539;51.064;6.346;2022-09-06T05:36:05;19.30;99.90
5218;DHT22;26539;51.064;6.346;2022-09-06T05:38:31;19.40;99.90
5218;DHT22;26539;51.064;6.346;2022-09-06T05:40:57;19.40;99.90
5218;DHT22;26539;51.064;6.346;2022-09-06T05:43:22;19.50;1.00
5218;DHT22;26539;51.064;6.346;2022-09-06T05:45:48;19.90;1.00
5218;DHT22;26539;51.064;6.346;2022-09-06T05:48:14;23.60;1.00
5218;DHT22;26539;51.064;6.346;2022-09-06T05:50:39;28.00;1.00
5218;DHT22;26539;51.064;6.346;2022-09-06T05:53:05;31.70;99.90
5218;DHT22;26539;51.064;6.346;2022-09-06T05:55:30;34.70;99.90
5218;DHT22;26539;51.064;6.346;2022-09-06T05:57:56;37.30;99.90
5218;DHT22;26539;51.064;6.346;2022-09-06T06:00:23;39.40;99.90
5218;DHT22;26539;51.064;6.346;2022-09-06T06:02:49;41.40;99.90
5218;DHT22;26539;51.064;6.346;2022-09-06T06:05:15;42.90;99.90
5218;DHT22;26539;51.064;6.346;2022-09-06T06:07:41;44.30;99.90
5218;DHT22;26539;51.064;6.346;2022-09-06T06:10:07;45.40;98.10
5218;DHT22;26539;51.064;6.346;2022-09-06T06:12:33;46.30;90.80
5218;DHT22;26539;51.064;6.346;2022-09-06T06:14:58;46.80;73.00
5218;DHT22;26539;51.064;6.346;2022-09-06T06:17:24;47.20;58.90
5218;DHT22;26539;51.064;6.346;2022-09-06T06:19:49;47.70;50.30
5218;DHT22;26539;51.064;6.346;2022-09-06T06:22:15;48.40;44.80
5218;DHT22;26539;51.064;6.346;2022-09-06T06:24:40;48.90;37.40
5218;DHT22;26539;51.064;6.346;2022-09-06T06:27:06;49.10;30.20
5218;DHT22;26539;51.064;6.346;2022-09-06T06:29:31;49.70;27.40
5218;DHT22;26539;51.064;6.346;2022-09-06T06:31:57;50.40;23.70
5218;DHT22;26539;51.064;6.346;2022-09-06T06:34:23;50.60;19.60
5218;DHT22;26539;51.064;6.346;2022-09-06T06:36:48;50.80;16.50
5218;DHT22;26539;51.064;6.346;2022-09-06T06:39:14;51.00;13.50
5218;DHT22;26539;51.064;6.346;2022-09-06T06:41:40;51.60;12.20
5218;DHT22;26539;51.064;6.346;2022-09-06T06:44:05;51.70;9.60
5218;DHT22;26539;51.064;6.346;2022-09-06T06:46:34;51.80;7.10
5218;DHT22;26539;51.064;6.346;2022-09-06T06:49:00;52.40;6.00
5218;DHT22;26539;51.064;6.346;2022-09-06T06:51:28;53.30;5.50
5218;DHT22;26539;51.064;6.346;2022-09-06T06:53:55;54.10;4.00
5218;DHT22;26539;51.064;6.346;2022-09-06T06:58:59;54.90;1.00
5218;DHT22;26539;51.064;6.346;2022-09-06T07:01:26;55.20;1.00
5218;DHT22;26539;51.064;6.346;2022-09-06T07:03:52;55.30;1.00
5218;DHT22;26539;51.064;6.346;2022-09-06T07:06:19;55.20;1.00
5218;DHT22;26539;51.064;6.346;2022-09-06T07:08:45;55.60;1.00
5218;DHT22;26539;51.064;6.346;2022-09-06T07:11:13;55.90;1.00
5218;DHT22;26539;51.064;6.346;2022-09-06T07:13:39;56.00;1.00
5218;DHT22;26539;51.064;6.346;2022-09-06T07:16:17;55.90;1.00
5218;DHT22;26539;51.064;6.346;2022-09-06T07:18:43;55.40;1.00
5218;DHT22;26539;51.064;6.346;2022-09-06T07:21:12;55.40;1.00
5218;DHT22;26539;51.064;6.346;2022-09-06T07:23:38;55.20;1.00
5218;DHT22;26539;51.064;6.346;2022-09-06T07:26:04;55.20;1.00
5218;DHT22;26539;51.064;6.346;2022-09-06T07:28:30;55.30;1.00
5218;DHT22;26539;51.064;6.346;2022-09-06T07:30:56;55.70;1.00
5218;DHT22;26539;51.064;6.346;2022-09-06T07:33:23;55.70;1.00
5218;DHT22;26539;51.064;6.346;2022-09-06T07:36:00;55.20;1.00
5218;DHT22;26539;51.064;6.346;2022-09-06T07:38:27;54.50;1.00
5218;DHT22;26539;51.064;6.346;2022-09-06T07:40:54;54.20;1.00
5218;DHT22;26539;51.064;6.346;2022-09-06T07:43:20;54.60;1.00
5218;DHT22;26539;51.064;6.346;2022-09-06T07:45:46;54.90;1.00
5218;DHT22;26539;51.064;6.346;2022-09-06T07:48:12;55.30;1.00
5218;DHT22;26539;51.064;6.346;2022-09-06T07:50:37;55.90;1.00
5218;DHT22;26539;51.064;6.346;2022-09-06T07:53:05;56.10;1.00
5218;DHT22;26539;51.064;6.346;2022-09-06T07:55:30;56.10;1.00
5218;DHT22;26539;51.064;6.346;2022-09-06T07:57:56;56.10;1.00
5218;DHT22;26539;51.064;6.346;2022-09-06T08:00:21;55.40;1.00
5218;DHT22;26539;51.064;6.346;2022-09-06T08:02:47;55.30;1.00
5218;DHT22;26539;51.064;6.346;2022-09-06T08:05:12;54.60;1.00
5218;DHT22;26539;51.064;6.346;2022-09-06T08:07:38;54.10;1.00
5218;DHT22;26539;51.064;6.346;2022-09-06T08:10:04;53.90;1.00
5218;DHT22;26539;51.064;6.346;2022-09-06T08:12:29;54.10;1.00
5218;DHT22;26539;51.064;6.346;2022-09-06T08:14:55;54.60;1.00
5218;DHT22;26539;51.064;6.346;2022-09-06T08:17:21;54.40;1.00
5218;DHT22;26539;51.064;6.346;2022-09-06T08:19:46;53.70;1.00
5218;DHT22;26539;51.064;6.346;2022-09-06T08:22:13;53.90;1.00
5218;DHT22;26539;51.064;6.346;2022-09-06T08:24:39;54.00;1.00
5218;DHT22;26539;51.064;6.346;2022-09-06T08:27:05;53.80;1.00
5218;DHT22;26539;51.064;6.346;2022-09-06T08:29:32;53.90;1.00
5218;DHT22;26539;51.064;6.346;2022-09-06T08:31:58;53.90;1.00
5218;DHT22;26539;51.064;6.346;2022-09-06T08:34:24;53.40;1.00
5218;DHT22;26539;51.064;6.346;2022-09-06T08:36:49;52.90;1.00
5218;DHT22;26539;51.064;6.346;2022-09-06T08:39:15;52.70;1.00
5218;DHT22;26539;51.064;6.346;2022-09-06T08:42:01;52.30;1.00
5218;DHT22;26539;51.064;6.346;2022-09-06T08:44:31;52.40;1.00
5218;DHT22;26539;51.064;6.346;2022-09-06T08:47:05;52.90;1.00
5218;DHT22;26539;51.064;6.346;2022-09-06T08:49:34;53.40;1.00
5218;DHT22;26539;51.064;6.346;2022-09-06T09:00:30;55.00;1.00
5218;DHT22;26539;51.064;6.346;2022-09-06T09:03:10;55.40;1.00
5218;DHT22;26539;51.064;6.346;2022-09-06T09:05:40;55.40;1.00
5218;DHT22;26539;51.064;6.346;2022-09-06T09:09:09;54.80;1.00
5218;DHT22;26539;51.064;6.346;2022-09-06T09:11:17;54.00;1.00
5218;DHT22;26539;51.064;6.346;2022-09-06T09:16:16;52.80;1.00
5218;DHT22;26539;51.064;6.346;2022-09-06T09:18:45;52.60;1.00
5218;DHT22;26539;51.064;6.346;2022-09-06T09:21:11;52.40;1.00
5218;DHT22;26539;51.064;6.346;2022-09-06T09:23:37;52.20;1.00
5218;DHT22;26539;51.064;6.346;2022-09-06T09:26:06;52.00;1.00
5218;DHT22;26539;51.064;6.346;2022-09-06T09:28:34;51.90;1.00
5218;DHT22;26539;51.064;6.346;2022-09-06T09:31:00;51.30;1.00
5218;DHT22;26539;51.064;6.346;2022-09-06T09:33:33;50.80;1.00
5218;DHT22;26539;51.064;6.346;2022-09-06T09:36:20;50.50;1.00
5218;DHT22;26539;51.064;6.346;2022-09-06T09:38:46;50.30;1.00
5218;DHT22;26539;51.064;6.346;2022-09-06T09:41:27;50.30;1.00
5218;DHT22;26539;51.064;6.346;2022-09-06T09:44:15;51.10;1.00
5218;DHT22;26539;51.064;6.346;2022-09-06T09:46:41;51.40;1.00
5218;DHT22;26539;51.064;6.346;2022-09-06T09:54:35;51.90;1.00
5218;DHT22;26539;51.064;6.346;2022-09-06T09:57:06;52.20;1.00
5218;DHT22;26539;51.064;6.346;2022-09-06T10:02:01;52.70;1.00
5218;DHT22;26539;51.064;6.346;2022-09-06T10:04:50;52.60;1.00
5218;DHT22;26539;51.064;6.346;2022-09-06T10:07:23;52.60;1.00
5218;DHT22;26539;51.064;6.346;2022-09-06T10:09:59;52.20;1.00
5218;DHT22;26539;51.064;6.346;2022-09-06T10:14:57;52.20;1.00
5218;DHT22;26539;51.064;6.346;2022-09-06T10:19:53;52.20;1.00
5218;DHT22;26539;51.064;6.346;2022-09-06T10:36:32;52.30;1.00
5218;DHT22;26539;51.064;6.346;2022-09-06T10:39:14;52.40;1.00
5218;DHT22;26539;51.064;6.346;2022-09-06T10:42:07;52.40;1.00
5218;DHT22;26539;51.064;6.346;2022-09-06T10:44:51;52.30;1.00
5218;DHT22;26539;51.064;6.346;2022-09-06T10:47:28;52.50;1.00
5218;DHT22;26539;51.064;6.346;2022-09-06T10:49:59;52.40;1.00
5218;DHT22;26539;51.064;6.346;2022-09-06T10:52:36;52.30;1.00
5218;DHT22;26539;51.064;6.346;2022-09-06T10:55:04;52.10;1.00
5218;DHT22;26539;51.064;6.346;2022-09-06T10:57:45;52.10;1.00
5218;DHT22;26539;51.064;6.346;2022-09-06T11:00:12;52.00;1.00
5218;DHT22;26539;51.064;6.346;2022-09-06T11:05:24;51.60;1.00
5218;DHT22;26539;51.064;6.346;2022-09-06T11:08:00;51.40;1.00
5218;DHT22;26539;51.064;6.346;2022-09-06T11:13:29;51.30;1.00
5218;DHT22;26539;51.064;6.346;2022-09-06T11:18:45;51.30;1.00
5218;DHT22;26539;51.064;6.346;2022-09-06T11:24:11;51.10;1.00
5218;DHT22;26539;51.064;6.346;2022-09-06T11:26:44;51.00;1.00
5218;DHT22;26539;51.064;6.346;2022-09-06T11:29:25;50.80;1.00
5218;DHT22;26539;51.064;6.346;2022-09-06T11:31:56;50.60;1.00
5218;DHT22;26539;51.064;6.346;2022-09-06T11:34:26;50.00;1.00
5218;DHT22;26539;51.064;6.346;2022-09-06T11:37:03;49.80;1.00
5218;DHT22;26539;51.064;6.346;2022-09-06T11:39:35;49.40;1.00
5218;DHT22;26539;51.064;6.346;2022-09-06T11:42:05;49.20;1.00
5218;DHT22;26539;51.064;6.346;2022-09-06T11:47:39;49.20;1.00
5218;DHT22;26539;51.064;6.346;2022-09-06T11:55:47;48.80;1.00
5218;DHT22;26539;51.064;6.346;2022-09-06T12:00:46;48.70;1.00
5218;DHT22;26539;51.064;6.346;2022-09-06T12:06:22;48.70;1.00
5218;DHT22;26539;51.064;6.346;2022-09-06T12:08:50;48.90;1.00
5218;DHT22;26539;51.064;6.346;2022-09-06T12:11:25;48.90;1.00
5218;DHT22;26539;51.064;6.346;2022-09-06T12:14:08;48.60;1.00
5218;DHT22;26539;51.064;6.346;2022-09-06T12:24:55;47.80;1.00
5218;DHT22;26539;51.064;6.346;2022-09-06T12:27:23;47.60;1.00
5218;DHT22;26539;51.064;6.346;2022-09-06T12:32:24;47.10;1.00
5218;DHT22;26539;51.064;6.346;2022-09-06T12:34:52;46.70;1.00
5218;DHT22;26539;51.064;6.346;2022-09-06T12:37:34;46.60;1.00
5218;DHT22;26539;51.064;6.346;2022-09-06T12:40:03;46.50;1.00
5218;DHT22;26539;51.064;6.346;2022-09-06T12:42:29;46.20;1.00
5218;DHT22;26539;51.064;6.346;2022-09-06T12:44:55;46.20;1.00
5218;DHT22;26539;51.064;6.346;2022-09-06T12:47:29;46.00;1.00
5218;DHT22;26539;51.064;6.346;2022-09-06T12:50:19;45.80;1.00
5218;DHT22;26539;51.064;6.346;2022-09-06T12:52:46;45.50;1.00
5218;DHT22;26539;51.064;6.346;2022-09-06T12:55:28;45.10;1.00
5218;DHT22;26539;51.064;6.346;2022-09-06T12:57:58;44.80;1.00
5218;DHT22;26539;51.064;6.346;2022-09-06T13:00:26;44.70;1.00
5218;DHT22;26539;51.064;6.346;2022-09-06T13:05:39;44.50;1.00
5218;DHT22;26539;51.064;6.346;2022-09-06T13:08:15;44.50;1.00
5218;DHT22;26539;51.064;6.346;2022-09-06T13:10:45;44.40;1.00
5218;DHT22;26539;51.064;6.346;2022-09-06T13:13:18;44.20;1.00
5218;DHT22;26539;51.064;6.346;2022-09-06T13:15:46;44.10;1.00
5218;DHT22;26539;51.064;6.346;2022-09-06T13:18:35;44.00;1.00
5218;DHT22;26539;51.064;6.346;2022-09-06T13:21:04;43.70;1.00
5218;DHT22;26539;51.064;6.346;2022-09-06T13:23:43;43.50;1.00
5218;DHT22;26539;51.064;6.346;2022-09-06T13:26:09;43.20;1.00
5218;DHT22;26539;51.064;6.346;2022-09-06T13:28:35;43.10;1.00
5218;DHT22;26539;51.064;6.346;2022-09-06T13:31:19;43.10;1.00
5218;DHT22;26539;51.064;6.346;2022-09-06T13:33:57;42.90;1.00
5218;DHT22;26539;51.064;6.346;2022-09-06T13:36:26;42.80;1.00
5218;DHT22;26539;51.064;6.346;2022-09-06T13:38:52;42.50;1.00
5218;DHT22;26539;51.064;6.346;2022-09-06T13:44:03;42.00;1.00
5218;DHT22;26539;51.064;6.346;2022-09-06T13:46:31;42.00;1.00
5218;DHT22;26539;51.064;6.346;2022-09-06T13:48:57;41.80;1.00
5218;DHT22;26539;51.064;6.346;2022-09-06T13:51:23;41.50;1.00
5218;DHT22;26539;51.064;6.346;2022-09-06T13:53:51;41.30;1.00
5218;DHT22;26539;51.064;6.346;2022-09-06T13:56:16;41.30;1.00
5218;DHT22;26539;51.064;6.346;2022-09-06T13:58:42;41.30;1.00
5218;DHT22;26539;51.064;6.346;2022-09-06T14:01:10;41.10;1.00
5218;DHT22;26539;51.064;6.346;2022-09-06T14:03:39;41.10;1.00
5218;DHT22;26539;51.064;6.346;2022-09-06T14:06:05;41.10;1.00
5218;DHT22;26539;51.064;6.346;2022-09-06T14:08:32;41.10;1.00
5218;DHT22;26539;51.064;6.346;2022-09-06T14:10:58;41.10;1.00
5218;DHT22;26539;51.064;6.346;2022-09-06T14:13:24;41.00;1.00
5218;DHT22;26539;51.064;6.346;2022-09-06T14:15:50;40.80;1.00
5218;DHT22;26539;51.064;6.346;2022-09-06T14:18:16;40.50;1.00
5218;DHT22;26539;51.064;6.346;2022-09-06T14:20:53;40.40;1.00
5218;DHT22;26539;51.064;6.346;2022-09-06T14:23:19;40.30;1.00
5218;DHT22;26539;51.064;6.346;2022-09-06T14:25:45;40.10;1.00
5218;DHT22;26539;51.064;6.346;2022-09-06T14:28:11;40.10;1.00
5218;DHT22;26539;51.064;6.346;2022-09-06T14:30:36;40.00;1.00
5218;DHT22;26539;51.064;6.346;2022-09-06T14:33:03;40.00;1.00
5218;DHT22;26539;51.064;6.346;2022-09-06T14:35:30;40.00;1.00
5218;DHT22;26539;51.064;6.346;2022-09-06T14:37:56;39.70;1.00
5218;DHT22;26539;51.064;6.346;2022-09-06T14:40:28;39.50;1.00
5218;DHT22;26539;51.064;6.346;2022-09-06T14:42:54;39.50;1.00
5218;DHT22;26539;51.064;6.346;2022-09-06T14:45:20;39.40;1.00
5218;DHT22;26539;51.064;6.346;2022-09-06T14:47:45;39.20;1.00
5218;DHT22;26539;51.064;6.346;2022-09-06T14:50:11;39.10;1.00
5218;DHT22;26539;51.064;6.346;2022-09-06T14:52:37;38.80;1.00
5218;DHT22;26539;51.064;6.346;2022-09-06T14:55:02;38.50;1.00
5218;DHT22;26539;51.064;6.346;2022-09-06T14:57:28;38.20;1.00
5218;DHT22;26539;51.064;6.346;2022-09-06T14:59:54;38.00;1.00
5218;DHT22;26539;51.064;6.346;2022-09-06T15:02:20;37.70;1.00
5218;DHT22;26539;51.064;6.346;2022-09-06T15:04:46;37.40;1.00
5218;DHT22;26539;51.064;6.346;2022-09-06T15:07:11;37.20;1.00
5218;DHT22;26539;51.064;6.346;2022-09-06T15:09:38;37.00;1.00
5218;DHT22;26539;51.064;6.346;2022-09-06T15:12:04;36.90;1.00
5218;DHT22;26539;51.064;6.346;2022-09-06T15:14:29;36.70;1.00
5218;DHT22;26539;51.064;6.346;2022-09-06T15:16:56;36.60;1.00
5218;DHT22;26539;51.064;6.346;2022-09-06T15:19:28;36.40;1.00
5218;DHT22;26539;51.064;6.346;2022-09-06T15:21:54;36.30;1.00
5218;DHT22;26539;51.064;6.346;2022-09-06T15:24:23;36.20;1.00
5218;DHT22;26539;51.064;6.346;2022-09-06T15:26:49;36.20;1.00
5218;DHT22;26539;51.064;6.346;2022-09-06T15:29:15;36.20;1.00
5218;DHT22;26539;51.064;6.346;2022-09-06T15:31:41;36.20;1.00
5218;DHT22;26539;51.064;6.346;2022-09-06T15:34:07;36.20;1.00
5218;DHT22;26539;51.064;6.346;2022-09-06T15:36:35;36.20;1.00
5218;DHT22;26539;51.064;6.346;2022-09-06T15:39:02;36.30;1.00
5218;DHT22;26539;51.064;6.346;2022-09-06T15:41:30;36.20;1.00
5218;DHT22;26539;51.064;6.346;2022-09-06T15:43:58;36.20;1.00
5218;DHT22;26539;51.064;6.346;2022-09-06T15:48:59;36.30;1.00
5218;DHT22;26539;51.064;6.346;2022-09-06T15:51:26;36.20;1.00
5218;DHT22;26539;51.064;6.346;2022-09-06T15:53:52;36.20;1.00
5218;DHT22;26539;51.064;6.346;2022-09-06T15:56:18;36.10;1.00
5218;DHT22;26539;51.064;6.346;2022-09-06T15:58:44;35.90;1.00
5218;DHT22;26539;51.064;6.346;2022-09-06T16:01:18;35.80;1.00
5218;DHT22;26539;51.064;6.346;2022-09-06T16:03:52;35.70;1.00
5218;DHT22;26539;51.064;6.346;2022-09-06T16:06:21;35.60;1.00
5218;DHT22;26539;51.064;6.346;2022-09-06T16:08:48;35.50;1.00
5218;DHT22;26539;51.064;6.346;2022-09-06T16:11:15;35.40;1.00
5218;DHT22;26539;51.064;6.346;2022-09-06T16:13:45;35.40;1.00
5218;DHT22;26539;51.064;6.346;2022-09-06T16:16:13;35.40;1.00
5218;DHT22;26539;51.064;6.346;2022-09-06T16:18:41;35.40;1.00
5218;DHT22;26539;51.064;6.346;2022-09-06T16:21:20;35.40;1.00
5218;DHT22;26539;51.064;6.346;2022-09-06T16:23:51;35.40;1.00
5218;DHT22;26539;51.064;6.346;2022-09-06T16:26:17;35.40;1.00
5218;DHT22;26539;51.064;6.346;2022-09-06T16:28:43;35.30;1.00
5218;DHT22;26539;51.064;6.346;2022-09-06T16:31:09;35.20;1.00
5218;DHT22;26539;51.064;6.346;2022-09-06T16:33:37;35.20;1.00
5218;DHT22;26539;51.064;6.346;2022-09-06T16:36:06;35.20;1.00
5218;DHT22;26539;51.064;6.346;2022-09-06T16:38:36;35.00;1.00
5218;DHT22;26539;51.064;6.346;2022-09-06T16:41:17;35.00;1.00
5218;DHT22;26539;51.064;6.346;2022-09-06T16:43:44;34.90;1.00
5218;DHT22;26539;51.064;6.346;2022-09-06T16:46:11;34.80;1.00
5218;DHT22;26539;51.064;6.346;2022-09-06T16:48:37;34.80;1.00
5218;DHT22;26539;51.064;6.346;2022-09-06T16:51:16;34.70;1.00
5218;DHT22;26539;51.064;6.346;2022-09-06T16:53:50;34.70;1.00
5218;DHT22;26539;51.064;6.346;2022-09-06T16:56:24;34.60;1.00
5218;DHT22;26539;51.064;6.346;2022-09-06T16:58:55;34.60;1.00
5218;DHT22;26539;51.064;6.346;2022-09-06T17:01:22;34.60;1.00
5218;DHT22;26539;51.064;6.346;2022-09-06T17:03:49;34.60;1.00
5218;DHT22;26539;51.064;6.346;2022-09-06T17:06:14;34.60;1.00
5218;DHT22;26539;51.064;6.346;2022-09-06T17:08:40;34.50;1.00
5218;DHT22;26539;51.064;6.346;2022-09-06T17:11:10;34.50;1.00
5218;DHT22;26539;51.064;6.346;2022-09-06T17:13:49;34.50;1.00
5218;DHT22;26539;51.064;6.346;2022-09-06T17:16:15;34.30;1.00
5218;DHT22;26539;51.064;6.346;2022-09-06T17:18:59;34.20;1.00
5218;DHT22;26539;51.064;6.346;2022-09-06T17:21:26;34.00;1.00
5218;DHT22;26539;51.064;6.346;2022-09-06T17:23:55;33.80;1.00
5218;DHT22;26539;51.064;6.346;2022-09-06T17:26:23;33.60;1.00
5218;DHT22;26539;51.064;6.346;2022-09-06T17:28:52;33.40;1.00
5218;DHT22;26539;51.064;6.346;2022-09-06T17:31:18;33.30;1.00
5218;DHT22;26539;51.064;6.346;2022-09-06T17:33:52;33.00;1.00
5218;DHT22;26539;51.064;6.346;2022-09-06T17:36:20;32.80;1.00
5218;DHT22;26539;51.064;6.346;2022-09-06T17:38:47;32.60;1.00
5218;DHT22;26539;51.064;6.346;2022-09-06T17:41:23;32.40;1.00
5218;DHT22;26539;51.064;6.346;2022-09-06T17:43:50;32.20;1.00
5218;DHT22;26539;51.064;6.346;2022-09-06T17:46:17;32.00;1.00
5218;DHT22;26539;51.064;6.346;2022-09-06T17:48:42;31.80;1.00
5218;DHT22;26539;51.064;6.346;2022-09-06T17:51:09;31.70;1.00
5218;DHT22;26539;51.064;6.346;2022-09-06T17:53:35;31.60;1.00
5218;DHT22;26539;51.064;6.346;2022-09-06T17:56:06;31.50;1.00
5218;DHT22;26539;51.064;6.346;2022-09-06T17:58:33;31.50;1.00
5218;DHT22;26539;51.064;6.346;2022-09-06T18:01:04;31.40;1.00
5218;DHT22;26539;51.064;6.346;2022-09-06T18:03:30;31.40;1.00